createdAt,value
2023-01-03T00:04:52.824Z,26.00
2023-01-03T00:09:54.939Z,26.00
2023-01-03T00:14:57.929Z,26.00
2023-01-03T00:20:00.461Z,26.00
2023-01-03T00:25:03.416Z,26.00
2023-01-03T00:30:06.151Z,25.90
2023-01-03T00:35:08.920Z,26.10
2023-01-03T00:40:11.508Z,26.20
2023-01-03T00:45:19.235Z,26.90
2023-01-03T00:50:22.172Z,26.60
2023-01-03T00:55:24.353Z,26.80
2023-01-03T01:00:26.484Z,26.70
2023-01-03T01:05:31.869Z,27.40
2023-01-03T01:10:34.308Z,26.70
2023-01-03T01:15:39.075Z,26.80
2023-01-03T01:20:41.249Z,26.80
2023-01-03T01:25:44.057Z,26.70
2023-01-03T01:30:47.433Z,26.80
2023-01-03T01:35:49.711Z,26.70
2023-01-03T01:40:55.387Z,26.90
2023-01-03T01:45:58.658Z,26.80
2023-01-03T01:51:00.822Z,27.10
2023-01-03T01:56:19.422Z,27.10
2023-01-03T02:01:24.354Z,27.00
2023-01-03T02:06:27.440Z,26.90
2023-01-03T02:11:44.811Z,27.10
2023-01-03T02:17:16.101Z,27.20
2023-01-03T02:22:41.352Z,27.20
2023-01-03T02:28:07.608Z,27.30
2023-01-03T02:33:18.735Z,27.30
2023-01-03T02:43:41.115Z,27.20
2023-01-03T02:48:58.285Z,27.20
2023-01-03T02:54:03.754Z,27.00
2023-01-03T02:59:12.141Z,26.90
2023-01-03T03:04:15.294Z,26.80
2023-01-03T03:09:20.838Z,26.80
2023-01-03T03:14:40.655Z,28.00
2023-01-03T03:20:06.206Z,27.90
2023-01-03T03:25:16.301Z,28.60
2023-01-03T03:30:22.278Z,28.30
2023-01-03T03:35:26.248Z,28.00
2023-01-03T03:40:50.548Z,27.60
2023-01-03T03:46:14.800Z,28.00
2023-01-03T03:51:19.943Z,28.00
2023-01-03T03:56:28.251Z,28.00
2023-01-03T04:01:31.763Z,28.30
2023-01-03T04:06:38.876Z,28.30
2023-01-03T04:11:41.273Z,28.30
2023-01-03T04:16:43.389Z,28.10
2023-01-03T04:21:45.589Z,28.20
2023-01-03T04:26:48.594Z,28.10
2023-01-03T04:31:50.836Z,28.10
2023-01-03T04:36:53.008Z,27.90
2023-01-03T04:41:55.084Z,27.70
2023-01-03T04:46:57.196Z,27.60
2023-01-03T04:51:59.282Z,27.80
2023-01-03T05:02:06.235Z,28.60
2023-01-03T05:07:08.591Z,29.40
2023-01-03T05:17:14.193Z,29.50
2023-01-03T05:22:34.783Z,29.50
2023-01-03T05:27:36.909Z,29.70
2023-01-03T05:32:39.004Z,29.70
2023-01-03T05:37:42.493Z,29.80
2023-01-03T05:42:44.588Z,29.70
2023-01-03T05:47:46.689Z,29.10
2023-01-03T05:52:49.232Z,28.60
2023-01-03T05:57:52.087Z,28.20
2023-01-03T06:02:54.367Z,28.10
2023-01-03T06:07:59.256Z,28.10
2023-01-03T06:18:04.158Z,28.30
2023-01-03T06:23:06.333Z,28.70
2023-01-03T06:28:08.453Z,29.00
2023-01-03T06:33:14.147Z,29.00
2023-01-03T06:38:16.549Z,29.30
2023-01-03T06:48:42.978Z,29.30
2023-01-03T06:53:45.247Z,29.50
2023-01-03T06:58:51.255Z,29.70
2023-01-03T07:03:53.444Z,29.60
2023-01-03T07:08:56.183Z,29.80
2023-01-03T07:13:58.561Z,29.80
2023-01-03T07:19:01.508Z,29.50
2023-01-03T07:24:05.890Z,29.40
2023-01-03T07:29:09.990Z,29.60
2023-01-03T07:34:12.129Z,29.80
2023-01-03T07:39:14.373Z,29.70
2023-01-03T07:44:16.758Z,30.00
2023-01-03T07:49:18.983Z,30.00
2023-01-03T07:54:21.255Z,30.00
2023-01-03T07:59:23.333Z,30.00
2023-01-03T08:04:25.468Z,29.90
2023-01-03T08:09:46.589Z,29.90
2023-01-03T08:14:51.881Z,29.80
2023-01-03T08:19:53.933Z,29.90
2023-01-03T08:29:58.556Z,29.50
2023-01-03T08:35:03.452Z,29.50
2023-01-03T08:40:06.364Z,29.80
2023-01-03T08:45:11.893Z,29.50
2023-01-03T08:50:14.638Z,29.40
2023-01-03T08:55:16.885Z,29.50
2023-01-03T09:00:19.528Z,29.80
2023-01-03T09:05:21.708Z,30.10
2023-01-03T09:10:24.564Z,30.00
2023-01-03T09:15:26.825Z,30.20
2023-01-03T09:20:28.910Z,30.30
2023-01-03T09:25:36.733Z,30.10
2023-01-03T09:30:42.694Z,29.50
2023-01-03T09:40:56.197Z,30.00
2023-01-03T09:46:03.566Z,30.20
2023-01-03T09:51:30.527Z,30.00
2023-01-03T09:56:52.115Z,30.00
2023-01-03T10:02:40.891Z,29.50
2023-01-03T10:08:13.530Z,29.40
2023-01-03T10:13:35.875Z,29.60
2023-01-03T10:19:15.609Z,29.20
2023-01-03T10:24:26.177Z,29.30
2023-01-03T10:34:30.893Z,29.50
2023-01-03T10:39:33.346Z,29.10
2023-01-03T10:44:35.468Z,28.60
2023-01-03T10:49:37.604Z,28.00
2023-01-03T10:55:03.942Z,28.10
2023-01-03T11:00:29.477Z,28.00
2023-01-03T11:05:33.745Z,28.10
2023-01-03T11:10:56.668Z,28.10
2023-01-03T11:16:01.786Z,28.00
2023-01-03T11:21:17.758Z,27.40
2023-01-03T11:26:52.710Z,26.90
2023-01-03T11:32:28.028Z,27.10
2023-01-03T11:37:42.084Z,26.20
2023-01-03T11:43:01.016Z,25.90
2023-01-03T11:48:21.282Z,24.60
2023-01-03T11:54:00.998Z,24.90
2023-01-03T12:04:26.691Z,24.90
2023-01-03T12:09:42.657Z,24.90
2023-01-03T12:14:48.545Z,24.40
2023-01-03T12:20:21.476Z,24.30
2023-01-03T12:25:38.016Z,24.20
2023-01-03T12:30:40.138Z,23.80
2023-01-03T12:35:56.251Z,23.50
2023-01-03T12:41:06.009Z,23.40
2023-01-03T12:46:19.467Z,23.00
2023-01-03T12:51:24.789Z,23.10
2023-01-03T12:57:00.285Z,23.40
2023-01-03T13:02:24.629Z,23.40
2023-01-03T13:07:32.124Z,23.50
2023-01-03T13:12:38.330Z,23.50
2023-01-03T13:17:46.662Z,23.40
2023-01-03T13:22:50.683Z,23.40
2023-01-03T13:27:55.983Z,23.50
2023-01-03T13:33:16.871Z,23.50
2023-01-03T13:38:28.723Z,23.40
2023-01-03T13:43:39.951Z,23.50
2023-01-03T13:48:56.492Z,23.60
2023-01-03T13:54:09.400Z,23.70
2023-01-03T14:05:10.982Z,23.80
2023-01-03T14:11:07.338Z,23.80
2023-01-03T14:16:29.144Z,23.80
2023-01-03T14:21:44.956Z,23.70
2023-01-03T14:26:48.245Z,23.70
2023-01-03T14:31:55.610Z,23.70
2023-01-03T14:37:03.775Z,23.70
2023-01-03T14:42:07.661Z,23.60
2023-01-03T14:47:17.827Z,23.70
2023-01-03T14:52:52.902Z,23.70
2023-01-03T15:02:58.606Z,24.00
2023-01-03T15:08:15.788Z,24.00
2023-01-03T15:13:33.837Z,23.80
2023-01-03T15:18:39.805Z,23.80
2023-01-03T15:23:48.027Z,23.20
2023-01-03T15:28:54.636Z,22.90
2023-01-03T15:34:21.432Z,22.80
2023-01-03T15:39:26.216Z,22.70
2023-01-03T15:44:28.676Z,22.80
2023-01-03T15:49:34.876Z,23.40
2023-01-03T15:54:37.041Z,23.00
2023-01-03T15:59:43.530Z,22.90
2023-01-03T16:04:47.829Z,23.10
2023-01-03T16:14:54.414Z,22.90
2023-01-03T16:19:58.731Z,23.70
2023-01-03T16:25:00.996Z,23.20
2023-01-03T16:30:03.810Z,23.10
2023-01-03T16:35:17.864Z,23.30
2023-01-03T16:40:21.306Z,23.10
2023-01-03T16:45:23.398Z,23.20
2023-01-03T16:50:25.809Z,23.90
2023-01-03T16:55:41.020Z,23.90
2023-01-03T17:00:44.162Z,24.20
2023-01-03T17:05:47.810Z,24.00
2023-01-03T17:10:53.232Z,24.90
2023-01-03T17:15:56.700Z,24.90
2023-01-03T17:21:02.878Z,25.70
2023-01-03T17:26:05.446Z,25.70
2023-01-03T17:31:08.989Z,25.80
2023-01-03T17:36:16.356Z,25.80
2023-01-03T17:41:25.042Z,25.40
2023-01-03T17:46:47.197Z,25.20
2023-01-03T17:51:55.273Z,25.10
2023-01-03T17:56:59.202Z,25.00
2023-01-03T18:02:02.701Z,24.80
2023-01-03T18:07:05.076Z,24.70
2023-01-03T18:12:13.251Z,24.60
2023-01-03T18:17:30.178Z,24.30
2023-01-03T18:27:35.009Z,24.20
2023-01-03T18:37:39.902Z,24.90
2023-01-03T18:43:00.477Z,25.10
2023-01-03T18:48:03.380Z,24.80
2023-01-03T18:53:05.538Z,24.90
2023-01-03T18:58:35.525Z,25.00
2023-01-03T19:03:41.659Z,24.80
2023-01-03T19:08:43.986Z,25.40
2023-01-03T19:13:54.871Z,25.10
2023-01-03T19:24:07.320Z,25.40
2023-01-03T19:29:21.991Z,25.70
2023-01-03T19:34:26.266Z,25.70
2023-01-03T19:39:33.654Z,25.60
2023-01-03T19:44:39.810Z,25.50
2023-01-03T19:49:49.161Z,25.70
2023-01-03T19:54:51.318Z,25.60
2023-01-03T19:59:56.539Z,25.40
2023-01-03T20:04:59.643Z,25.60
2023-01-03T20:10:02.978Z,26.00
2023-01-03T20:15:07.560Z,26.00
2023-01-03T20:20:11.990Z,26.00
2023-01-03T20:25:26.856Z,26.40
2023-01-03T20:30:32.230Z,25.90
2023-01-03T20:40:57.569Z,25.70
2023-01-03T20:45:59.753Z,25.80
2023-01-03T20:51:02.073Z,26.20
2023-01-03T20:56:13.512Z,26.30
2023-01-03T21:01:15.719Z,26.00
2023-01-03T21:06:19.445Z,26.00
2023-01-03T21:11:41.788Z,26.70
2023-01-03T21:16:48.538Z,26.70
2023-01-03T21:21:53.390Z,27.40
2023-01-03T21:26:55.564Z,28.50
2023-01-03T21:31:58.966Z,28.50
2023-01-03T21:37:01.458Z,28.90
2023-01-03T21:42:22.789Z,29.00
2023-01-03T21:47:24.895Z,28.60
2023-01-03T21:52:26.966Z,28.70
2023-01-03T21:57:29.836Z,29.00
2023-01-03T22:02:54.766Z,29.10
2023-01-03T22:08:03.727Z,28.70
2023-01-03T22:13:08.171Z,28.90
2023-01-03T22:28:24.579Z,28.90
2023-01-03T22:33:26.642Z,28.90
2023-01-03T22:38:28.794Z,29.10
2023-01-03T22:43:31.016Z,29.10
2023-01-03T22:48:33.766Z,29.30
2023-01-03T22:53:37.607Z,29.70
2023-01-03T23:03:43.846Z,29.20
2023-01-03T23:08:51.398Z,29.00
2023-01-03T23:13:53.733Z,29.00
2023-01-03T23:18:55.855Z,28.90
2023-01-03T23:23:58.224Z,28.80
2023-01-03T23:29:01.038Z,28.80
2023-01-03T23:34:03.435Z,28.80
2023-01-03T23:44:08.320Z,29.00
2023-01-03T23:49:12.530Z,29.10
2023-01-03T23:54:14.707Z,29.00
2023-01-03T23:59:19.017Z,28.90
